createdAt,value
2019-03-08T00:01:46.484Z,3.07
2019-03-08T00:03:51.623Z,3.50
2019-03-08T00:05:56.636Z,6.13
2019-03-08T00:08:02.191Z,1.40
2019-03-08T00:10:07.300Z,2.90
2019-03-08T00:12:12.558Z,5.90
2019-03-08T00:14:17.500Z,4.30
2019-03-08T00:16:23.475Z,2.90
2019-03-08T00:18:28.955Z,4.23
2019-03-08T00:20:33.837Z,2.97
2019-03-08T00:22:39.141Z,4.67
2019-03-08T00:24:44.702Z,3.13
2019-03-08T00:26:49.688Z,3.13
2019-03-08T00:28:55.277Z,2.43
2019-03-08T00:31:00.521Z,4.97
2019-03-08T00:33:06.045Z,4.53
2019-03-08T00:35:11.598Z,3.17
2019-03-08T00:37:16.556Z,3.10
2019-03-08T00:39:21.475Z,1.50
2019-03-08T00:41:27.363Z,4.73
2019-03-08T00:45:44.043Z,3.00
2019-03-08T00:47:49.856Z,4.13
2019-03-08T00:49:54.727Z,5.57
2019-03-08T00:51:59.987Z,1.80
2019-03-08T00:54:05.556Z,1.77
2019-03-08T00:56:11.100Z,2.00
2019-03-08T00:58:16.651Z,4.00
2019-03-08T01:00:22.152Z,4.97
2019-03-08T01:02:27.430Z,4.20
2019-03-08T01:04:32.961Z,5.67
2019-03-08T01:06:38.608Z,2.70
2019-03-08T01:08:44.151Z,3.80
2019-03-08T01:10:49.109Z,4.07
2019-03-08T01:12:54.310Z,2.93
2019-03-08T01:14:59.532Z,2.07
2019-03-08T01:17:04.706Z,3.23
2019-03-08T01:19:09.580Z,3.80
2019-03-08T01:21:14.531Z,4.63
2019-03-08T01:23:19.447Z,4.10
2019-03-08T01:25:24.647Z,6.47
2019-03-08T01:27:30.147Z,1.80
2019-03-08T01:29:35.294Z,4.33
2019-03-08T01:31:40.462Z,3.23
2019-03-08T01:33:46.056Z,3.47
2019-03-08T01:35:51.346Z,2.03
2019-03-08T01:37:57.386Z,3.87
2019-03-08T01:40:02.445Z,1.87
2019-03-08T01:42:07.655Z,3.30
2019-03-08T01:44:12.984Z,3.70
2019-03-08T01:46:18.107Z,1.97
2019-03-08T01:48:23.307Z,3.77
2019-03-08T01:50:28.269Z,2.27
2019-03-08T01:52:33.827Z,2.17
2019-03-08T01:54:39.344Z,5.20
2019-03-08T01:56:44.550Z,2.27
2019-03-08T01:58:49.846Z,2.07
2019-03-08T02:00:56.788Z,4.47
2019-03-08T02:03:04.670Z,3.23
2019-03-08T02:05:11.813Z,4.27
2019-03-08T02:07:19.934Z,3.70
2019-03-08T02:09:25.816Z,3.07
2019-03-08T02:11:31.267Z,4.47
2019-03-08T02:13:36.832Z,3.50
2019-03-08T02:15:43.465Z,3.90
2019-03-08T02:17:48.567Z,4.20
2019-03-08T02:19:54.221Z,5.33
2019-03-08T02:21:59.399Z,5.27
2019-03-08T02:24:04.338Z,2.30
2019-03-08T02:26:09.269Z,3.57
2019-03-08T02:28:14.217Z,5.37
2019-03-08T02:30:19.805Z,4.33
2019-03-08T02:32:25.071Z,3.07
2019-03-08T02:34:29.994Z,3.47
2019-03-08T02:36:35.149Z,3.10
2019-03-08T02:38:40.934Z,5.03
2019-03-08T02:40:46.169Z,4.40
2019-03-08T02:42:51.263Z,4.10
2019-03-08T02:44:56.473Z,4.07
2019-03-08T02:47:01.562Z,1.03
2019-03-08T02:49:06.516Z,2.43
2019-03-08T02:51:11.845Z,2.47
2019-03-08T02:53:17.238Z,3.33
2019-03-08T02:55:22.683Z,4.73
2019-03-08T02:57:27.876Z,1.80
2019-03-08T02:59:33.529Z,3.03
2019-03-08T03:01:40.943Z,4.43
2019-03-08T03:03:46.985Z,3.20
2019-03-08T03:05:52.123Z,5.27
2019-03-08T03:07:58.008Z,4.27
2019-03-08T03:10:03.046Z,4.20
2019-03-08T03:12:08.540Z,2.67
2019-03-08T03:14:13.823Z,2.70
2019-03-08T03:16:19.515Z,2.57
2019-03-08T03:18:24.974Z,2.60
2019-03-08T03:20:30.132Z,3.20
2019-03-08T03:22:35.353Z,2.30
2019-03-08T03:24:40.461Z,2.40
2019-03-08T03:26:45.941Z,4.23
2019-03-08T03:28:51.558Z,3.40
2019-03-08T03:30:56.579Z,2.90
2019-03-08T03:33:01.993Z,5.43
2019-03-08T03:35:07.694Z,5.87
2019-03-08T03:37:12.587Z,5.63
2019-03-08T03:39:17.943Z,4.73
2019-03-08T03:41:23.408Z,2.23
2019-03-08T03:43:28.859Z,4.77
2019-03-08T03:45:34.015Z,2.83
2019-03-08T03:47:39.658Z,3.00
2019-03-08T03:49:45.454Z,3.63
2019-03-08T03:51:50.761Z,3.10
2019-03-08T03:53:55.920Z,2.80
2019-03-08T03:56:00.810Z,2.10
2019-03-08T03:58:06.452Z,3.87
2019-03-08T04:00:13.791Z,3.80
2019-03-08T04:02:19.091Z,2.40
2019-03-08T04:04:24.605Z,1.57
2019-03-08T04:06:30.042Z,1.27
2019-03-08T04:08:35.510Z,2.10
2019-03-08T04:10:40.625Z,0.53
2019-03-08T04:12:45.913Z,1.53
2019-03-08T04:14:51.180Z,0.57
2019-03-08T04:16:56.329Z,2.00
2019-03-08T04:19:01.913Z,1.77
2019-03-08T04:21:07.170Z,1.80
2019-03-08T04:23:12.600Z,1.47
2019-03-08T04:25:17.526Z,2.20
2019-03-08T04:27:22.420Z,1.33
2019-03-08T04:29:27.644Z,3.17
2019-03-08T04:31:32.910Z,2.57
2019-03-08T04:33:37.833Z,2.53
2019-03-08T04:35:43.051Z,2.13
2019-03-08T04:37:48.273Z,0.70
2019-03-08T04:39:53.842Z,2.63
2019-03-08T04:41:59.302Z,2.73
2019-03-08T04:44:04.585Z,0.40
2019-03-08T04:46:09.542Z,2.73
2019-03-08T04:48:15.374Z,2.43
2019-03-08T04:50:20.569Z,1.63
2019-03-08T04:52:25.784Z,1.20
2019-03-08T04:54:31.229Z,2.30
2019-03-08T04:56:36.386Z,2.07
2019-03-08T04:58:41.662Z,1.73
2019-03-08T05:00:47.125Z,1.77
2019-03-08T05:02:52.775Z,1.90
2019-03-08T05:04:58.594Z,1.47
2019-03-08T05:07:03.485Z,3.63
2019-03-08T05:09:08.951Z,1.23
2019-03-08T05:11:33.165Z,3.47
2019-03-08T05:13:38.598Z,2.57
2019-03-08T05:15:43.815Z,4.37
2019-03-08T05:17:49.780Z,2.90
2019-03-08T05:19:54.658Z,3.07
2019-03-08T05:22:00.433Z,3.67
2019-03-08T05:24:05.907Z,2.53
2019-03-08T05:26:11.043Z,1.77
2019-03-08T05:28:16.855Z,2.67
2019-03-08T05:30:22.183Z,2.83
2019-03-08T05:32:27.146Z,4.83
2019-03-08T05:34:32.371Z,3.87
2019-03-08T05:36:37.648Z,3.23
2019-03-08T05:38:42.888Z,5.00
2019-03-08T05:40:48.026Z,6.90
2019-03-08T05:42:53.558Z,4.47
2019-03-08T05:44:58.766Z,4.00
2019-03-08T05:47:04.013Z,4.83
2019-03-08T05:49:09.846Z,7.00
2019-03-08T05:51:15.017Z,5.07
2019-03-08T05:53:21.457Z,5.93
2019-03-08T05:55:26.894Z,6.77
2019-03-08T05:57:32.757Z,6.03
2019-03-08T05:59:37.749Z,4.87
2019-03-08T06:01:42.930Z,4.30
2019-03-08T06:03:48.756Z,8.20
2019-03-08T06:05:54.146Z,6.13
2019-03-08T06:07:59.430Z,5.43
2019-03-08T06:10:04.848Z,6.73
2019-03-08T06:12:09.999Z,7.63
2019-03-08T06:14:15.717Z,7.23
2019-03-08T06:16:21.085Z,4.63
2019-03-08T06:18:26.535Z,8.03
2019-03-08T06:20:32.006Z,6.90
2019-03-08T06:22:37.596Z,5.20
2019-03-08T06:24:42.492Z,6.87
2019-03-08T06:26:48.480Z,6.73
2019-03-08T06:28:53.637Z,7.03
2019-03-08T06:30:58.514Z,6.73
2019-03-08T06:33:04.562Z,7.20
2019-03-08T06:35:09.984Z,8.40
2019-03-08T06:37:15.046Z,8.50
2019-03-08T06:39:20.654Z,7.10
2019-03-08T06:41:25.596Z,5.60
2019-03-08T06:43:30.843Z,10.13
2019-03-08T06:45:36.038Z,7.40
2019-03-08T06:47:41.862Z,8.23
2019-03-08T06:49:46.769Z,8.60
2019-03-08T06:51:52.071Z,5.67
2019-03-08T06:53:57.837Z,9.47
2019-03-08T06:56:03.741Z,9.00
2019-03-08T06:58:08.620Z,11.80
2019-03-08T07:00:42.825Z,14.73
2019-03-08T07:02:48.314Z,11.33
2019-03-08T07:04:53.285Z,10.70
2019-03-08T07:06:58.314Z,9.83
2019-03-08T07:09:04.223Z,10.77
2019-03-08T07:11:09.081Z,10.70
2019-03-08T07:13:14.028Z,9.23
2019-03-08T07:15:19.339Z,10.73
2019-03-08T07:17:24.214Z,10.80
2019-03-08T07:19:29.876Z,10.20
2019-03-08T07:21:45.498Z,9.33
2019-03-08T07:24:12.738Z,13.07
2019-03-08T07:26:24.869Z,9.43
2019-03-08T07:28:46.282Z,14.33
2019-03-08T07:31:04.165Z,12.37
2019-03-08T07:33:27.077Z,11.13
2019-03-08T07:35:43.870Z,17.43
2019-03-08T07:38:20.389Z,11.67
2019-03-08T07:40:59.384Z,9.97
2019-03-08T07:43:22.676Z,16.03
2019-03-08T07:45:45.513Z,11.77
2019-03-08T07:48:08.912Z,12.00
2019-03-08T07:50:31.506Z,11.37
2019-03-08T07:52:55.425Z,16.07
2019-03-08T07:55:23.766Z,13.97
2019-03-08T07:57:46.937Z,14.20
2019-03-08T08:00:05.526Z,10.13
2019-03-08T08:02:33.165Z,14.43
2019-03-08T08:05:15.971Z,8.50
2019-03-08T08:07:34.000Z,12.37
2019-03-08T08:09:46.846Z,6.90
2019-03-08T08:12:16.974Z,10.70
2019-03-08T08:14:44.679Z,11.50
2019-03-08T08:17:05.983Z,10.50
2019-03-08T08:19:29.427Z,13.47
2019-03-08T08:21:45.940Z,16.33
2019-03-08T08:23:57.328Z,15.40
2019-03-08T08:26:24.399Z,13.47
2019-03-08T08:28:55.954Z,11.13
2019-03-08T08:31:20.309Z,16.93
2019-03-08T08:33:43.510Z,10.80
2019-03-08T08:36:03.588Z,14.77
2019-03-08T08:38:30.348Z,14.07
2019-03-08T08:40:53.651Z,12.50
2019-03-08T08:43:17.498Z,11.33
2019-03-08T08:45:33.800Z,14.37
2019-03-08T08:47:50.497Z,13.47
2019-03-08T08:50:22.594Z,11.73
2019-03-08T08:52:47.190Z,11.77
2019-03-08T08:55:20.819Z,13.43
2019-03-08T08:57:35.309Z,11.07
2019-03-08T08:59:49.299Z,16.13
2019-03-08T09:02:08.995Z,12.63
2019-03-08T09:04:24.872Z,10.97
2019-03-08T09:06:38.452Z,12.07
2019-03-08T09:08:56.410Z,12.27
2019-03-08T09:11:14.203Z,11.40
2019-03-08T09:13:37.069Z,11.07
2019-03-08T09:16:00.985Z,12.47
2019-03-08T09:18:24.935Z,12.93
2019-03-08T09:20:47.730Z,16.77
2019-03-08T09:23:14.977Z,8.93
2019-03-08T09:25:27.874Z,13.23
2019-03-08T09:27:52.400Z,8.33
2019-03-08T09:30:15.185Z,11.00
2019-03-08T09:32:45.974Z,15.67
2019-03-08T09:35:07.286Z,9.83
2019-03-08T09:37:23.504Z,12.57
2019-03-08T09:39:38.781Z,12.07
2019-03-08T09:41:56.573Z,12.33
2019-03-08T09:44:20.290Z,11.73
2019-03-08T09:46:36.209Z,10.80
2019-03-08T09:48:59.618Z,10.53
2019-03-08T09:51:22.429Z,13.40
2019-03-08T09:53:42.871Z,10.70
2019-03-08T09:56:03.151Z,10.37
2019-03-08T09:58:16.507Z,10.40
2019-03-08T10:00:37.896Z,11.47
2019-03-08T10:03:01.667Z,9.73
2019-03-08T10:05:16.348Z,12.37
2019-03-08T10:07:26.806Z,12.43
2019-03-08T10:09:51.860Z,14.60
2019-03-08T10:12:19.162Z,14.67
2019-03-08T10:14:33.432Z,10.37
2019-03-08T10:16:44.270Z,11.20
2019-03-08T10:19:14.839Z,10.93
2019-03-08T10:21:36.935Z,12.70
2019-03-08T10:23:55.958Z,11.73
2019-03-08T10:26:32.543Z,10.20
2019-03-08T10:28:56.712Z,12.33
2019-03-08T10:31:24.506Z,8.30
2019-03-08T10:33:46.202Z,10.37
2019-03-08T10:35:58.985Z,11.13
2019-03-08T10:38:22.659Z,10.07
2019-03-08T10:40:43.550Z,8.40
2019-03-08T10:42:58.765Z,11.83
2019-03-08T10:45:29.147Z,9.53
2019-03-08T10:47:59.088Z,11.10
2019-03-08T10:50:30.518Z,9.83
2019-03-08T10:53:00.741Z,8.47
2019-03-08T10:55:43.890Z,8.40
2019-03-08T10:58:06.181Z,9.10
2019-03-08T11:00:32.258Z,11.60
2019-03-08T11:02:51.502Z,11.37
2019-03-08T11:05:04.049Z,11.70
2019-03-08T11:07:25.910Z,6.57
2019-03-08T11:09:57.224Z,10.40
2019-03-08T11:12:20.489Z,6.47
2019-03-08T11:14:56.763Z,9.87
2019-03-08T11:17:23.795Z,5.43
2019-03-08T11:19:46.375Z,6.93
2019-03-08T11:22:01.564Z,6.97
2019-03-08T11:24:31.580Z,5.30
2019-03-08T11:27:08.527Z,8.70
2019-03-08T11:29:36.110Z,8.80
2019-03-08T11:32:03.213Z,8.93
2019-03-08T11:34:27.460Z,10.53
2019-03-08T11:36:40.504Z,9.10
2019-03-08T11:38:57.916Z,10.97
2019-03-08T11:41:21.175Z,9.63
2019-03-08T11:43:42.703Z,8.03
2019-03-08T11:46:15.571Z,9.93
2019-03-08T11:48:30.854Z,5.17
2019-03-08T11:50:56.871Z,8.30
2019-03-08T11:53:33.241Z,7.50
2019-03-08T11:55:46.603Z,6.40
2019-03-08T11:58:10.787Z,8.67
2019-03-08T12:00:25.668Z,5.90
2019-03-08T12:02:50.167Z,7.60
2019-03-08T12:05:23.471Z,7.50
2019-03-08T12:07:43.641Z,6.90
2019-03-08T12:10:17.163Z,6.70
2019-03-08T12:12:40.207Z,6.60
2019-03-08T12:15:02.785Z,6.13
2019-03-08T12:17:27.291Z,9.73
2019-03-08T12:20:01.114Z,6.37
2019-03-08T12:22:17.050Z,7.87
2019-03-08T12:24:41.160Z,6.83
2019-03-08T12:27:08.476Z,4.27
2019-03-08T12:29:22.767Z,4.37
2019-03-08T12:31:49.539Z,6.10
2019-03-08T12:34:00.828Z,6.07
2019-03-08T12:36:30.938Z,4.50
2019-03-08T12:38:53.840Z,6.67
2019-03-08T12:41:08.561Z,9.17
2019-03-08T12:43:30.319Z,5.03
2019-03-08T12:45:45.121Z,10.27
2019-03-08T12:48:23.950Z,8.37
2019-03-08T12:50:47.014Z,9.07
2019-03-08T12:53:14.122Z,4.97
2019-03-08T12:55:37.191Z,6.07
2019-03-08T12:57:53.479Z,8.87
2019-03-08T13:00:21.046Z,5.83
2019-03-08T13:02:57.911Z,3.30
2019-03-08T13:05:34.452Z,4.13
2019-03-08T13:08:04.768Z,4.87
2019-03-08T13:10:13.824Z,5.30
2019-03-08T13:12:19.516Z,4.00
2019-03-08T13:14:24.785Z,6.30
2019-03-08T13:16:30.322Z,6.60
2019-03-08T13:18:35.600Z,4.60
2019-03-08T13:20:41.169Z,6.97
2019-03-08T13:22:46.837Z,5.57
2019-03-08T13:24:52.413Z,5.67
2019-03-08T13:26:57.700Z,5.33
2019-03-08T13:29:02.652Z,5.67
2019-03-08T13:31:07.963Z,7.73
2019-03-08T13:33:12.829Z,8.67
2019-03-08T13:35:18.094Z,6.13
2019-03-08T13:37:23.205Z,4.17
2019-03-08T13:39:29.038Z,3.77
2019-03-08T13:41:33.990Z,4.33
2019-03-08T13:43:39.192Z,7.10
2019-03-08T13:45:44.750Z,6.13
2019-03-08T13:47:50.317Z,4.00
2019-03-08T13:49:55.473Z,6.90
2019-03-08T13:52:00.445Z,7.50
2019-03-08T13:54:05.713Z,5.67
2019-03-08T13:56:11.136Z,4.93
2019-03-08T13:58:16.349Z,6.43
2019-03-08T14:00:22.045Z,5.57
2019-03-08T14:02:30.171Z,4.83
2019-03-08T14:04:35.643Z,5.23
2019-03-08T14:06:41.192Z,5.83
2019-03-08T14:08:46.094Z,5.67
2019-03-08T14:10:51.831Z,2.97
2019-03-08T14:12:57.192Z,6.57
2019-03-08T14:15:02.739Z,7.00
2019-03-08T14:17:07.683Z,4.87
2019-03-08T14:19:13.197Z,5.23
2019-03-08T14:21:18.840Z,7.23
2019-03-08T14:23:24.083Z,5.90
2019-03-08T14:25:29.498Z,6.83
2019-03-08T14:27:34.669Z,5.37
2019-03-08T14:29:40.949Z,6.77
2019-03-08T14:31:55.614Z,4.13
2019-03-08T14:34:00.581Z,6.93
2019-03-08T14:36:06.116Z,6.00
2019-03-08T14:38:11.995Z,5.53
2019-03-08T14:40:36.374Z,3.73
2019-03-08T14:42:50.241Z,3.57
2019-03-08T14:45:14.602Z,3.63
2019-03-08T14:47:22.934Z,4.10
2019-03-08T14:49:28.331Z,3.73
2019-03-08T14:51:33.760Z,8.83
2019-03-08T14:53:39.035Z,5.13
2019-03-08T14:55:44.311Z,3.97
2019-03-08T14:57:49.379Z,5.17
2019-03-08T14:59:54.328Z,4.13
2019-03-08T15:01:59.652Z,6.27
2019-03-08T15:04:05.168Z,4.70
2019-03-08T15:06:10.360Z,5.40
2019-03-08T15:08:17.882Z,5.23
2019-03-08T15:10:22.126Z,6.83
2019-03-08T15:12:27.248Z,6.00
2019-03-08T15:14:33.844Z,3.67
2019-03-08T15:16:40.084Z,4.47
2019-03-08T15:18:45.078Z,5.50
2019-03-08T15:20:50.039Z,5.10
2019-03-08T15:22:55.340Z,5.83
2019-03-08T15:25:00.302Z,3.63
2019-03-08T15:27:05.727Z,4.13
2019-03-08T15:29:13.552Z,3.60
2019-03-08T15:31:19.176Z,4.50
2019-03-08T15:33:25.571Z,6.77
2019-03-08T15:35:31.068Z,4.40
2019-03-08T15:37:43.918Z,5.13
2019-03-08T15:39:43.098Z,4.90
2019-03-08T15:41:48.303Z,4.33
2019-03-08T15:43:53.733Z,4.17
2019-03-08T15:45:59.469Z,5.03
2019-03-08T15:48:04.480Z,5.63
2019-03-08T15:50:13.375Z,5.17
2019-03-08T15:52:18.330Z,4.80
2019-03-08T15:54:23.837Z,5.77
2019-03-08T15:56:30.084Z,4.10
2019-03-08T15:58:35.261Z,7.33
2019-03-08T16:00:40.203Z,5.63
2019-03-08T16:02:45.214Z,4.40
2019-03-08T16:04:51.463Z,6.13
2019-03-08T16:06:56.395Z,3.60
2019-03-08T16:09:01.290Z,2.67
2019-03-08T16:11:06.703Z,2.90
2019-03-08T16:13:12.249Z,4.10
2019-03-08T16:15:18.282Z,3.40
2019-03-08T16:17:23.522Z,4.90
2019-03-08T16:19:28.733Z,3.23
2019-03-08T16:21:34.018Z,4.03
2019-03-08T16:23:39.495Z,4.43
2019-03-08T16:25:47.447Z,3.87
2019-03-08T16:27:51.825Z,3.40
2019-03-08T16:29:56.493Z,4.63
2019-03-08T16:32:29.861Z,4.63
2019-03-08T16:34:34.635Z,5.73
2019-03-08T16:36:46.914Z,2.37
2019-03-08T16:39:13.654Z,3.27
2019-03-08T16:41:40.744Z,3.83
2019-03-08T16:43:52.180Z,3.07
2019-03-08T16:46:10.642Z,4.40
2019-03-08T16:48:34.529Z,5.90
2019-03-08T16:50:56.257Z,4.83
2019-03-08T16:53:20.862Z,4.23
2019-03-08T16:55:45.514Z,6.63
2019-03-08T16:57:58.264Z,3.47
2019-03-08T17:00:14.031Z,5.70
2019-03-08T17:02:36.256Z,2.50
2019-03-08T17:04:51.087Z,4.23
2019-03-08T17:07:14.068Z,2.73
2019-03-08T17:09:56.367Z,4.57
2019-03-08T17:12:08.787Z,2.13
2019-03-08T17:14:29.764Z,6.07
2019-03-08T17:16:43.455Z,45.67
2019-03-08T17:19:18.929Z,35.10
2019-03-08T17:21:42.061Z,55.80
2019-03-08T17:23:54.519Z,67.80
2019-03-08T17:26:07.314Z,91.73
2019-03-08T17:28:41.146Z,126.23
2019-03-08T17:31:20.247Z,44.93
2019-03-08T17:33:43.734Z,18.57
2019-03-08T17:36:06.855Z,16.00
2019-03-08T17:38:32.757Z,8.80
2019-03-08T17:41:09.096Z,12.97
2019-03-08T17:43:33.540Z,22.40
2019-03-08T17:46:00.839Z,26.10
2019-03-08T17:48:31.095Z,7.17
2019-03-08T17:50:53.880Z,4.23
2019-03-08T17:53:16.962Z,6.57
2019-03-08T17:55:40.027Z,4.03
2019-03-08T17:58:14.397Z,5.43
2019-03-08T18:00:38.850Z,5.00
2019-03-08T18:03:03.118Z,2.57
2019-03-08T18:05:15.708Z,3.93
2019-03-08T18:07:52.210Z,6.00
2019-03-08T18:10:10.915Z,4.10
2019-03-08T18:12:44.459Z,2.70
2019-03-08T18:15:06.964Z,3.10
2019-03-08T18:17:29.999Z,5.57
2019-03-08T18:19:41.084Z,5.73
2019-03-08T18:22:14.301Z,3.40
2019-03-08T18:24:50.595Z,3.80
2019-03-08T18:27:03.538Z,3.87
2019-03-08T18:29:26.891Z,3.47
2019-03-08T18:31:43.700Z,7.07
2019-03-08T18:34:08.561Z,3.97
2019-03-08T18:36:38.606Z,4.33
2019-03-08T18:39:02.350Z,3.13
2019-03-08T18:41:29.410Z,3.40
2019-03-08T18:43:44.998Z,4.30
2019-03-08T18:45:59.402Z,4.10
2019-03-08T18:48:29.796Z,3.37
2019-03-08T18:50:52.821Z,3.57
2019-03-08T18:53:20.728Z,2.00
2019-03-08T18:55:54.263Z,4.10
2019-03-08T18:58:16.797Z,2.47
2019-03-08T19:00:30.479Z,2.83
2019-03-08T19:02:53.803Z,4.90
2019-03-08T19:05:14.640Z,2.60
2019-03-08T19:07:38.479Z,3.20
2019-03-08T19:09:52.751Z,2.13
2019-03-08T19:12:19.606Z,1.63
2019-03-08T19:14:37.463Z,1.53
2019-03-08T19:16:58.573Z,3.73
2019-03-08T19:19:22.951Z,3.90
2019-03-08T19:21:46.697Z,3.90
2019-03-08T19:24:10.947Z,2.47
2019-03-08T19:26:28.762Z,2.50
2019-03-08T19:28:43.833Z,2.20
2019-03-08T19:31:14.131Z,2.47
2019-03-08T19:33:42.358Z,4.10
2019-03-08T19:36:02.028Z,3.43
2019-03-08T19:38:29.054Z,4.40
2019-03-08T19:40:56.195Z,2.77
2019-03-08T19:43:13.065Z,2.83
2019-03-08T19:45:37.086Z,3.93
2019-03-08T19:47:59.380Z,3.37
2019-03-08T19:50:30.281Z,2.87
2019-03-08T19:52:53.349Z,2.37
2019-03-08T19:55:17.634Z,2.67
2019-03-08T19:57:34.413Z,3.13
2019-03-08T19:59:57.291Z,2.43
2019-03-08T20:02:20.617Z,4.13
2019-03-08T20:04:44.322Z,2.00
2019-03-08T20:07:07.864Z,3.07
2019-03-08T20:09:21.004Z,3.87
2019-03-08T20:11:45.389Z,4.07
2019-03-08T20:14:15.784Z,2.63
2019-03-08T20:16:38.157Z,3.77
2019-03-08T20:18:51.904Z,5.33
2019-03-08T20:21:06.063Z,3.90
2019-03-08T20:23:30.410Z,2.83
2019-03-08T20:25:54.043Z,3.50
2019-03-08T20:28:11.947Z,3.43
2019-03-08T20:30:34.800Z,4.03
2019-03-08T20:32:58.659Z,4.30
2019-03-08T20:35:26.078Z,4.03
2019-03-08T20:37:49.363Z,2.57
2019-03-08T20:40:17.233Z,6.57
2019-03-08T20:42:31.481Z,6.50
2019-03-08T20:44:57.611Z,7.10
2019-03-08T20:47:06.458Z,9.13
2019-03-08T20:49:11.348Z,5.47
2019-03-08T20:51:16.757Z,7.20
2019-03-08T20:53:21.736Z,4.60
2019-03-08T20:55:26.601Z,3.20
2019-03-08T20:57:31.537Z,5.03
2019-03-08T20:59:36.476Z,2.90
2019-03-08T21:01:41.451Z,4.40
2019-03-08T21:03:47.157Z,3.60
2019-03-08T21:05:52.402Z,3.97
2019-03-08T21:07:57.654Z,4.33
2019-03-08T21:10:02.836Z,3.30
2019-03-08T21:12:08.288Z,3.53
2019-03-08T21:14:13.222Z,2.77
2019-03-08T21:16:18.090Z,2.33
2019-03-08T21:18:23.254Z,3.37
2019-03-08T21:20:28.294Z,3.60
2019-03-08T21:22:34.300Z,2.83
2019-03-08T21:24:39.562Z,3.20
2019-03-08T21:26:44.805Z,2.47
2019-03-08T21:28:49.889Z,2.87
2019-03-08T21:30:54.852Z,4.07
2019-03-08T21:32:59.721Z,4.90
2019-03-08T21:35:05.315Z,2.53
2019-03-08T21:37:10.167Z,2.70
2019-03-08T21:39:16.001Z,5.37
2019-03-08T21:41:21.160Z,2.17
2019-03-08T21:43:26.417Z,3.80
2019-03-08T21:45:31.874Z,4.33
2019-03-08T21:47:37.118Z,2.67
2019-03-08T21:49:42.060Z,2.30
2019-03-08T21:51:47.209Z,2.53
2019-03-08T21:53:52.785Z,2.03
2019-03-08T21:55:57.981Z,2.80
2019-03-08T21:58:03.243Z,4.70
2019-03-08T22:00:15.426Z,2.07
2019-03-08T22:02:20.794Z,3.67
2019-03-08T22:04:30.878Z,2.17
2019-03-08T22:06:36.181Z,3.47
2019-03-08T22:08:50.887Z,2.37
2019-03-08T22:11:13.953Z,4.80
2019-03-08T22:13:18.787Z,3.80
2019-03-08T22:15:23.801Z,6.20
2019-03-08T22:17:28.844Z,3.57
2019-03-08T22:19:34.430Z,3.17
2019-03-08T22:21:39.709Z,3.17
2019-03-08T22:23:45.241Z,3.43
2019-03-08T22:25:50.945Z,3.33
2019-03-08T22:27:55.954Z,3.57
2019-03-08T22:30:01.044Z,2.83
2019-03-08T22:32:06.268Z,2.93
2019-03-08T22:34:13.181Z,1.77
2019-03-08T22:36:18.407Z,5.37
2019-03-08T22:38:23.589Z,4.17
2019-03-08T22:40:28.493Z,2.73
2019-03-08T22:42:33.384Z,3.40
2019-03-08T22:44:39.232Z,2.93
2019-03-08T22:46:45.778Z,2.37
2019-03-08T22:48:51.914Z,5.30
2019-03-08T22:50:56.765Z,5.57
2019-03-08T22:53:01.947Z,2.43
2019-03-08T22:55:08.326Z,3.50
2019-03-08T22:57:13.635Z,5.37
2019-03-08T22:59:18.793Z,3.37
2019-03-08T23:01:24.700Z,4.10
2019-03-08T23:03:30.279Z,6.13
2019-03-08T23:05:35.581Z,5.73
2019-03-08T23:07:41.015Z,5.40
2019-03-08T23:09:47.948Z,3.03
2019-03-08T23:11:53.110Z,4.23
2019-03-08T23:13:58.533Z,5.87
2019-03-08T23:16:04.173Z,2.83
2019-03-08T23:18:09.018Z,5.60
2019-03-08T23:20:14.525Z,6.53
2019-03-08T23:22:20.043Z,6.03
2019-03-08T23:24:25.349Z,6.13
2019-03-08T23:26:33.841Z,4.80
2019-03-08T23:28:54.893Z,7.23
2019-03-08T23:31:04.553Z,5.50
2019-03-08T23:33:09.529Z,6.93
2019-03-08T23:35:15.471Z,5.37
2019-03-08T23:37:20.938Z,5.13
2019-03-08T23:39:26.277Z,3.70
2019-03-08T23:41:32.093Z,4.20
2019-03-08T23:43:37.292Z,5.90
2019-03-08T23:45:42.981Z,6.93
2019-03-08T23:47:47.929Z,4.83
2019-03-08T23:49:52.770Z,6.77
2019-03-08T23:51:57.941Z,4.10
2019-03-08T23:54:03.817Z,8.40
2019-03-08T23:56:08.770Z,8.10
2019-03-08T23:58:13.906Z,6.90
